Time;durP1;ratioP1;P1;durP2;ratioP2;P2;SDS_P1;SDS_P2;PMS_P1;PMS_P2;Temp;Humidity;BMP_temperature;BMP_pressure;BME280_temperature;BME280_humidity;BME280_pressure;Samples;Min_cycle;Max_cycle;Signal;HPM_P1;HPM_P2
2023/06/20 00:00:16;;;;;;;6.45;3.33;;;18.30;97.70;;;;;;5020049;28;20052;-73
2023/06/20 00:02:42;;;;;;;7.00;2.92;;;18.30;97.80;;;;;;5021551;28;20045;-73
2023/06/20 00:05:07;;;;;;;6.93;2.92;;;18.30;97.80;;;;;;5005906;28;20038;-73
2023/06/20 00:07:33;;;;;;;7.32;3.13;;;18.30;97.80;;;;;;5016882;28;20061;-72
2023/06/20 00:09:59;;;;;;;8.90;3.08;;;18.20;97.90;;;;;;5017310;28;20075;-73
2023/06/20 00:12:25;;;;;;;7.78;3.42;;;18.20;97.80;;;;;;5021223;28;20041;-73
2023/06/20 00:14:51;;;;;;;9.65;3.30;;;18.20;97.90;;;;;;5004092;28;20047;-73
2023/06/20 00:17:16;;;;;;;9.75;3.45;;;18.20;98.00;;;;;;5019686;28;20432;-73
2023/06/20 00:19:42;;;;;;;6.82;3.00;;;18.20;98.00;;;;;;5003624;28;20056;-73
2023/06/20 00:22:08;;;;;;;5.70;3.22;;;18.20;98.10;;;;;;5022006;28;20102;-73
2023/06/20 00:24:33;;;;;;;6.70;2.83;;;18.20;98.10;;;;;;5017604;28;20099;-73
2023/06/20 00:27:00;;;;;;;6.57;3.17;;;18.10;98.10;;;;;;5004081;28;20072;-72
2023/06/20 00:29:26;;;;;;;7.30;2.95;;;18.10;98.10;;;;;;5020931;28;20044;-72
2023/06/20 00:31:51;;;;;;;5.60;2.88;;;18.10;98.20;;;;;;5020435;28;20037;-73
2023/06/20 00:34:17;;;;;;;8.10;3.13;;;18.10;98.20;;;;;;5016525;28;20034;-73
2023/06/20 00:36:43;;;;;;;7.50;3.00;;;18.00;98.20;;;;;;5020628;28;20033;-73
2023/06/20 00:39:08;;;;;;;6.28;2.83;;;18.10;98.30;;;;;;5019609;28;20514;-73
2023/06/20 00:41:34;;;;;;;4.07;2.45;;;18.20;98.40;;;;;;5007386;28;20045;-73
2023/06/20 00:44:03;;;;;;;5.22;2.58;;;18.10;98.40;;;;;;5023595;28;20041;-72
2023/06/20 00:46:32;;;;;;;9.23;2.88;;;18.10;98.40;;;;;;5023576;28;20041;-73
2023/06/20 00:48:59;;;;;;;5.65;3.05;;;18.20;98.40;;;;;;5024659;28;20048;-73
2023/06/20 00:51:28;;;;;;;7.18;3.42;;;18.20;98.40;;;;;;5023181;28;20049;-73
2023/06/20 00:53:55;;;;;;;5.32;2.92;;;18.20;98.50;;;;;;5020095;28;20037;-73
2023/06/20 00:56:23;;;;;;;6.05;2.92;;;18.20;98.50;;;;;;5017020;28;20072;-73
2023/06/20 00:58:49;;;;;;;6.03;3.00;;;18.20;98.50;;;;;;5017998;28;20042;-73
2023/06/20 01:01:18;;;;;;;6.32;2.90;;;18.20;98.50;;;;;;5003204;28;20040;-73
2023/06/20 01:03:48;;;;;;;7.57;3.03;;;18.20;98.60;;;;;;5020313;28;20041;-73
2023/06/20 01:06:41;;;;;;;6.57;2.40;;;18.20;98.60;;;;;;5004227;28;20548;-73
2023/06/20 01:09:25;;;;;;;8.38;3.13;;;18.20;99.00;;;;;;5013925;28;20045;-73
2023/06/20 01:12:04;;;;;;;8.20;3.42;;;18.20;98.70;;;;;;5017452;28;20039;-73
2023/06/20 01:15:01;;;;;;;7.20;3.00;;;18.20;98.90;;;;;;5016261;28;20057;-73
2023/06/20 01:17:31;;;;;;;;;;;18.20;99.10;;;;;;5015904;28;20045;-73
2023/06/20 01:20:09;;;;;;;8.20;3.50;;;18.10;99.70;;;;;;5000796;28;19991;-73
2023/06/20 01:23:07;;;;;;;6.38;3.25;;;18.20;98.80;;;;;;5032374;28;20248;-73
2023/06/20 01:26:03;;;;;;;6.18;3.25;;;18.10;98.80;;;;;;4995473;28;20084;-73
2023/06/20 01:28:41;;;;;;;6.82;3.42;;;18.10;99.30;;;;;;5018591;28;20733;-73
2023/06/20 01:31:11;;;;;;;6.60;3.33;;;18.10;99.10;;;;;;5017412;28;20527;-73
2023/06/20 01:33:49;;;;;;;6.95;3.20;;;18.20;99.00;;;;;;5007463;28;20072;-73
2023/06/20 01:36:18;;;;;;;7.65;3.58;;;18.20;99.20;;;;;;5033362;28;20029;-73
2023/06/20 01:38:46;;;;;;;8.43;3.67;;;18.10;99.10;;;;;;5021111;28;20041;-73
2023/06/20 01:41:14;;;;;;;7.35;3.47;;;18.10;99.10;;;;;;5021064;28;20120;-73
2023/06/20 01:43:40;;;;;;;7.93;3.35;;;18.10;99.20;;;;;;5007027;28;20107;-73
2023/06/20 01:46:07;;;;;;;9.40;3.95;;;18.10;99.30;;;;;;5020010;28;20033;-73
2023/06/20 01:48:36;;;;;;;8.52;4.00;;;18.10;99.40;;;;;;5021378;28;20056;-73
2023/06/20 01:51:02;;;;;;;7.47;3.55;;;18.10;99.50;;;;;;5021781;28;20131;-73
2023/06/20 01:53:29;;;;;;;7.13;3.67;;;18.00;99.50;;;;;;5007340;28;20502;-73
2023/06/20 01:55:56;;;;;;;8.93;4.05;;;18.10;99.60;;;;;;5019730;28;20160;-73
2023/06/20 01:58:23;;;;;;;8.60;3.65;;;18.10;99.60;;;;;;5035543;28;20068;-73
2023/06/20 02:00:50;;;;;;;9.82;3.92;;;18.00;99.70;;;;;;5018082;28;20068;-73
2023/06/20 02:03:17;;;;;;;7.88;3.70;;;18.10;99.80;;;;;;5018787;28;20453;-73
2023/06/20 02:05:43;;;;;;;8.60;4.05;;;18.10;99.90;;;;;;5019310;28;20076;-73
2023/06/20 02:08:11;;;;;;;9.25;3.70;;;18.10;99.90;;;;;;5019489;28;20136;-73
2023/06/20 02:10:37;;;;;;;8.98;3.92;;;18.10;99.90;;;;;;5017570;28;20037;-73
2023/06/20 02:13:02;;;;;;;11.20;4.00;;;18.00;99.90;;;;;;5018186;28;20041;-73
2023/06/20 02:15:29;;;;;;;7.43;3.85;;;18.10;99.90;;;;;;5017723;28;20099;-73
2023/06/20 02:17:55;;;;;;;8.95;4.10;;;18.10;99.90;;;;;;5002584;28;20240;-73
2023/06/20 02:20:21;;;;;;;7.57;3.80;;;18.10;99.90;;;;;;5017772;28;20557;-73
2023/06/20 02:22:49;;;;;;;10.20;4.78;;;18.10;99.90;;;;;;5018995;28;20045;-73
2023/06/20 02:25:23;;;;;;;11.75;4.50;;;18.10;99.90;;;;;;5027539;28;20060;-73
2023/06/20 02:27:53;;;;;;;9.85;4.93;;;18.10;99.90;;;;;;5041691;28;20029;-73
2023/06/20 02:30:23;;;;;;;8.70;4.53;;;18.20;99.90;;;;;;5038147;28;20051;-73
2023/06/20 02:32:51;;;;;;;9.10;4.35;;;18.10;99.90;;;;;;5023004;28;20041;-73
2023/06/20 02:35:19;;;;;;;10.82;4.55;;;18.10;99.90;;;;;;5025639;28;20572;-73
2023/06/20 02:37:45;;;;;;;10.88;5.03;;;18.10;99.90;;;;;;5026339;28;20095;-72
2023/06/20 02:40:11;;;;;;;10.43;4.85;;;18.10;99.90;;;;;;5021662;28;20396;-73
2023/06/20 02:42:37;;;;;;;8.73;4.38;;;18.10;99.90;;;;;;5024346;28;20045;-73
2023/06/20 02:45:03;;;;;;;10.13;4.97;;;18.10;99.90;;;;;;5040552;28;20687;-73
2023/06/20 02:48:02;;;;;;;9.80;4.85;;;18.10;99.90;;;;;;5010338;28;20041;-73
2023/06/20 02:50:41;;;;;;;11.57;5.20;;;18.10;99.90;;;;;;5024987;28;20032;-73
2023/06/20 02:53:21;;;;;;;9.70;4.72;;;18.10;99.90;;;;;;5038834;28;20036;-73
2023/06/20 02:55:56;;;;;;;10.65;4.93;;;18.10;99.90;;;;;;5022164;28;20045;-73
2023/06/20 02:58:24;;;;;;;10.77;5.25;;;18.10;99.90;;;;;;5024132;28;20088;-73
2023/06/20 03:00:52;;;;;;;12.10;5.35;;;18.10;99.90;;;;;;5041766;28;20667;-73
2023/06/20 03:03:23;;;;;;;13.00;5.82;;;18.10;99.90;;;;;;5025742;28;20126;-73
2023/06/20 03:05:56;;;;;;;10.57;4.43;;;18.10;99.90;;;;;;5025017;28;20046;-73
2023/06/20 03:08:24;;;;;;;11.15;5.25;;;18.00;99.90;;;;;;5007695;28;20041;-73
2023/06/20 03:10:51;;;;;;;10.93;5.40;;;18.10;99.90;;;;;;5005997;28;20518;-73
2023/06/20 03:13:17;;;;;;;13.57;5.30;;;18.00;99.90;;;;;;5008176;28;20043;-73
2023/06/20 03:15:43;;;;;;;13.43;6.57;;;18.10;99.90;;;;;;5023292;28;20139;-73
2023/06/20 03:18:08;;;;;;;11.25;5.65;;;18.10;99.90;;;;;;5025013;28;20105;-73
2023/06/20 03:20:34;;;;;;;14.10;5.68;;;18.00;99.90;;;;;;5022907;28;20029;-73
2023/06/20 03:23:00;;;;;;;9.68;4.72;;;18.00;99.90;;;;;;5023704;28;20087;-73
2023/06/20 03:25:26;;;;;;;13.57;5.32;;;18.00;99.90;;;;;;5023154;28;20494;-73
2023/06/20 03:27:51;;;;;;;16.42;6.13;;;18.00;99.90;;;;;;5024902;28;20084;-73
2023/06/20 03:30:17;;;;;;;13.10;5.78;;;18.00;99.90;;;;;;5021350;28;20451;-73
2023/06/20 03:32:43;;;;;;;14.85;5.60;;;18.00;99.90;;;;;;5023071;28;20041;-73
2023/06/20 03:35:08;;;;;;;12.23;5.00;;;18.00;99.90;;;;;;5023978;28;20427;-73
2023/06/20 03:37:34;;;;;;;11.73;5.35;;;17.90;99.90;;;;;;5024838;28;20495;-73
2023/06/20 03:39:59;;;;;;;10.27;4.93;;;18.00;99.90;;;;;;5010753;28;20522;-73
2023/06/20 03:42:25;;;;;;;10.60;5.20;;;18.00;99.90;;;;;;5011049;28;20494;-73
2023/06/20 03:44:51;;;;;;;13.02;5.53;;;18.00;99.90;;;;;;5043674;28;20045;-73
2023/06/20 03:47:17;;;;;;;9.88;5.07;;;18.00;99.90;;;;;;5006408;28;20191;-73
2023/06/20 03:49:43;;;;;;;10.43;4.75;;;18.00;99.90;;;;;;5030022;28;20044;-73
2023/06/20 03:52:08;;;;;;;9.93;4.90;;;18.00;99.90;;;;;;5041070;28;20037;-73
2023/06/20 03:54:34;;;;;;;7.75;4.05;;;18.00;99.90;;;;;;5042501;28;20040;-73
2023/06/20 03:57:01;;;;;;;12.45;5.00;;;18.00;99.90;;;;;;5024299;28;20032;-73
2023/06/20 03:59:26;;;;;;;9.13;4.88;;;18.00;99.90;;;;;;5023479;28;20474;-73
2023/06/20 04:01:52;;;;;;;12.27;4.40;;;17.90;99.90;;;;;;5006671;28;20036;-73
2023/06/20 04:04:18;;;;;;;8.27;4.22;;;18.00;99.90;;;;;;5041111;28;20037;-73
2023/06/20 04:06:49;;;;;;;11.57;5.15;;;17.90;99.90;;;;;;5026471;28;20070;-73
2023/06/20 04:09:16;;;;;;;11.32;5.18;;;17.90;99.90;;;;;;5022815;28;20040;-73
2023/06/20 04:11:42;;;;;;;8.38;4.40;;;17.90;99.90;;;;;;5007178;28;20033;-73
2023/06/20 04:14:07;;;;;;;8.45;4.05;;;17.90;99.90;;;;;;5023656;28;20041;-73
2023/06/20 04:16:33;;;;;;;9.10;4.65;;;17.90;99.90;;;;;;5017954;28;20047;-73
2023/06/20 04:18:58;;;;;;;11.40;5.03;;;18.00;99.90;;;;;;5023518;28;20037;-73
2023/06/20 04:21:24;;;;;;;9.50;4.18;;;18.00;99.90;;;;;;5023081;28;20469;-73
2023/06/20 04:23:50;;;;;;;9.88;4.65;;;18.00;99.90;;;;;;5020709;28;20487;-73
2023/06/20 04:26:15;;;;;;;8.18;4.22;;;18.00;99.90;;;;;;5021860;28;20099;-73
2023/06/20 04:28:41;;;;;;;8.35;4.30;;;18.00;99.90;;;;;;5006907;28;20040;-73
2023/06/20 04:31:08;;;;;;;9.60;4.05;;;18.00;99.90;;;;;;5021345;28;20049;-73
2023/06/20 04:33:33;;;;;;;11.52;4.85;;;18.00;99.90;;;;;;5021468;28;20033;-73
2023/06/20 04:35:59;;;;;;;8.15;4.32;;;18.00;99.90;;;;;;5007792;28;20577;-73
2023/06/20 04:38:24;;;;;;;11.80;4.35;;;18.00;99.90;;;;;;5024149;28;20158;-73
2023/06/20 04:40:50;;;;;;;9.82;4.80;;;18.00;99.90;;;;;;5024771;28;20037;-73
2023/06/20 04:43:16;;;;;;;9.45;4.57;;;18.00;99.90;;;;;;5023891;28;20478;-73
2023/06/20 04:45:41;;;;;;;13.93;4.80;;;18.00;99.90;;;;;;5037745;28;20163;-73
2023/06/20 04:48:07;;;;;;;8.35;4.05;;;18.10;99.90;;;;;;5024902;28;20036;-73
2023/06/20 04:50:32;;;;;;;10.32;4.45;;;18.10;99.90;;;;;;5017611;28;20060;-73
2023/06/20 04:52:58;;;;;;;7.80;4.22;;;18.10;99.90;;;;;;5022590;28;20044;-73
2023/06/20 04:55:23;;;;;;;10.05;4.55;;;18.10;99.90;;;;;;5020430;28;20044;-73
2023/06/20 04:57:49;;;;;;;10.43;4.55;;;18.20;99.90;;;;;;5038775;28;20044;-73
2023/06/20 05:00:15;;;;;;;10.43;4.53;;;18.20;99.90;;;;;;5021889;28;20037;-73
2023/06/20 05:02:42;;;;;;;10.75;4.05;;;18.20;99.90;;;;;;5022276;28;20048;-73
2023/06/20 05:05:11;;;;;;;10.23;4.22;;;18.20;99.90;;;;;;5022842;28;20101;-73
2023/06/20 05:07:40;;;;;;;8.63;4.07;;;18.30;99.90;;;;;;5023538;28;20068;-73
2023/06/20 05:10:06;;;;;;;9.80;4.72;;;18.30;99.90;;;;;;5005806;28;20060;-73
2023/06/20 05:12:32;;;;;;;7.35;4.00;;;18.30;99.90;;;;;;5021460;28;20068;-73
2023/06/20 05:14:58;;;;;;;10.05;4.70;;;18.40;99.90;;;;;;5005341;28;20025;-73
2023/06/20 05:17:23;;;;;;;8.82;4.28;;;18.40;99.90;;;;;;5021074;28;21025;-73
2023/06/20 05:19:49;;;;;;;11.02;4.30;;;18.40;99.90;;;;;;5021293;28;20056;-73
2023/06/20 05:22:15;;;;;;;10.15;4.20;;;18.50;99.90;;;;;;5019833;28;20048;-73
2023/06/20 05:24:40;;;;;;;9.25;4.85;;;18.50;99.90;;;;;;5020376;28;20049;-73
2023/06/20 05:27:06;;;;;;;11.07;4.57;;;18.50;99.90;;;;;;5022939;28;20052;-73
2023/06/20 05:29:31;;;;;;;8.95;4.70;;;18.50;99.90;;;;;;5021127;28;20132;-73
2023/06/20 05:31:57;;;;;;;11.50;5.10;;;18.60;99.90;;;;;;5023963;28;20743;-73
2023/06/20 05:34:23;;;;;;;11.45;4.85;;;18.50;99.90;;;;;;5025887;28;20478;-73
2023/06/20 05:36:48;;;;;;;9.77;5.22;;;18.60;99.90;;;;;;5010882;28;20041;-73
2023/06/20 05:39:14;;;;;;;8.45;4.82;;;18.60;99.90;;;;;;5007976;28;20397;-73
2023/06/20 05:41:42;;;;;;;11.60;5.03;;;18.50;99.90;;;;;;5025584;28;20037;-73
2023/06/20 05:44:07;;;;;;;9.70;4.63;;;18.70;99.90;;;;;;5042602;28;20138;-73
2023/06/20 05:46:33;;;;;;;10.60;5.47;;;18.70;99.90;;;;;;5042538;28;20469;-73
2023/06/20 05:48:59;;;;;;;8.55;4.57;;;18.60;99.90;;;;;;5026165;28;20453;-73
2023/06/20 05:51:27;;;;;;;9.50;4.60;;;18.70;99.90;;;;;;5006250;28;20060;-73
2023/06/20 05:53:57;;;;;;;13.93;5.45;;;18.80;99.90;;;;;;5024451;28;20033;-73
2023/06/20 05:56:23;;;;;;;9.90;4.68;;;18.90;99.90;;;;;;5022138;28;20653;-73
2023/06/20 05:58:48;;;;;;;10.27;4.72;;;18.90;99.90;;;;;;5021364;28;20481;-73
2023/06/20 06:01:14;;;;;;;10.65;5.18;;;18.90;99.90;;;;;;5021879;28;20032;-73
2023/06/20 06:03:40;;;;;;;10.35;5.07;;;19.00;99.90;;;;;;5008882;28;20041;-72
2023/06/20 06:06:09;;;;;;;8.52;4.53;;;19.00;99.90;;;;;;5020415;28;20514;-73
2023/06/20 06:08:35;;;;;;;8.77;4.63;;;19.00;99.90;;;;;;5027575;28;20124;-73
2023/06/20 06:11:01;;;;;;;9.02;4.65;;;19.00;99.90;;;;;;5027282;28;20483;-72
2023/06/20 06:13:27;;;;;;;10.20;5.05;;;19.00;99.90;;;;;;5010598;28;20079;-73
2023/06/20 06:15:53;;;;;;;9.63;4.63;;;19.10;99.90;;;;;;5021694;28;20080;-73
2023/06/20 06:18:19;;;;;;;11.07;4.50;;;19.10;99.90;;;;;;5028210;28;20035;-74
2023/06/20 06:20:45;;;;;;;10.50;5.30;;;19.10;99.90;;;;;;5022784;28;20034;-74
2023/06/20 06:23:11;;;;;;;7.93;4.82;;;19.10;99.90;;;;;;5017079;28;20460;-74
2023/06/20 06:25:37;;;;;;;10.13;4.78;;;19.10;99.90;;;;;;5006721;28;20439;-74
2023/06/20 06:28:02;;;;;;;10.65;4.90;;;19.20;99.90;;;;;;5005806;28;20049;-74
2023/06/20 06:30:28;;;;;;;10.00;4.30;;;19.30;99.90;;;;;;5019694;28;20045;-75
2023/06/20 06:32:54;;;;;;;10.95;4.60;;;19.30;99.90;;;;;;5019978;28;20037;-74
2023/06/20 06:35:20;;;;;;;10.43;5.10;;;19.50;99.90;;;;;;5020746;28;20043;-75
2023/06/20 06:37:47;;;;;;;8.98;4.40;;;19.50;99.90;;;;;;5007392;28;20037;-75
2023/06/20 06:40:13;;;;;;;10.68;4.65;;;19.70;99.90;;;;;;5023412;28;20503;-75
2023/06/20 06:42:39;;;;;;;12.60;4.43;;;19.80;99.90;;;;;;5038957;28;20036;-75
2023/06/20 06:45:05;;;;;;;9.75;4.70;;;19.90;99.90;;;;;;5020334;28;20045;-75
2023/06/20 06:47:31;;;;;;;10.27;5.00;;;20.00;99.90;;;;;;5022221;28;20056;-75
2023/06/20 06:49:56;;;;;;;9.15;4.90;;;20.20;99.90;;;;;;5018396;28;20499;-73
2023/06/20 06:52:22;;;;;;;8.55;4.47;;;20.30;99.90;;;;;;5023551;28;20710;-72
2023/06/20 06:54:48;;;;;;;9.18;4.78;;;20.40;99.90;;;;;;5040255;28;20037;-73
2023/06/20 06:57:14;;;;;;;11.50;5.18;;;20.60;99.90;;;;;;5018832;28;20490;-74
2023/06/20 06:59:39;;;;;;;9.05;4.82;;;20.70;99.90;;;;;;5023209;28;20502;-74
2023/06/20 07:02:05;;;;;;;9.55;5.28;;;20.70;99.90;;;;;;5026819;28;20375;-74
2023/06/20 07:04:32;;;;;;;7.85;4.93;;;20.70;99.80;;;;;;5023494;28;20048;-74
2023/06/20 07:06:57;;;;;;;8.45;4.38;;;20.80;99.90;;;;;;5044977;28;20037;-72
2023/06/20 07:09:23;;;;;;;8.38;4.70;;;20.80;99.90;;;;;;5023589;28;20103;-74
2023/06/20 07:11:48;;;;;;;7.65;4.47;;;20.80;99.90;;;;;;5008591;28;20381;-74
2023/06/20 07:14:14;;;;;;;11.98;4.78;;;20.90;99.90;;;;;;5004578;28;20038;-74
2023/06/20 07:16:40;;;;;;;8.13;4.63;;;20.90;99.90;;;;;;5048794;28;20438;-74
2023/06/20 07:19:06;;;;;;;9.43;4.50;;;20.90;99.80;;;;;;5045612;28;20142;-74
2023/06/20 07:21:31;;;;;;;9.90;4.93;;;20.90;99.80;;;;;;5048633;28;20486;-74
2023/06/20 07:23:57;;;;;;;8.80;4.85;;;20.80;99.80;;;;;;5046924;28;20044;-74
2023/06/20 07:26:22;;;;;;;9.50;5.28;;;20.80;99.90;;;;;;5029244;28;20055;-74
2023/06/20 07:28:48;;;;;;;9.43;4.53;;;20.80;99.90;;;;;;5027245;28;20044;-74
2023/06/20 07:31:20;;;;;;;10.00;4.82;;;20.70;99.90;;;;;;5011754;28;20499;-74
2023/06/20 07:33:46;;;;;;;9.38;4.85;;;20.70;99.90;;;;;;5044342;28;20029;-74
2023/06/20 07:36:12;;;;;;;7.68;4.68;;;20.60;99.90;;;;;;5014125;28;20257;-74
2023/06/20 07:38:38;;;;;;;8.90;4.55;;;20.60;99.90;;;;;;5029792;28;20040;-74
2023/06/20 07:41:04;;;;;;;8.38;5.13;;;20.60;99.90;;;;;;5028831;28;20033;-74
2023/06/20 07:43:29;;;;;;;8.18;4.57;;;20.60;99.90;;;;;;5030924;28;20379;-74
2023/06/20 07:45:55;;;;;;;8.77;4.80;;;20.60;99.90;;;;;;5039370;28;20040;-72
2023/06/20 07:48:27;;;;;;;10.63;5.28;;;20.60;99.90;;;;;;5020806;28;20059;-74
2023/06/20 07:50:53;;;;;;;7.50;5.07;;;20.60;99.90;;;;;;5022400;28;20071;-74
2023/06/20 07:53:18;;;;;;;10.23;5.15;;;20.60;99.90;;;;;;5024893;28;20331;-73
2023/06/20 07:55:44;;;;;;;8.05;4.75;;;20.60;99.90;;;;;;5024202;28;20602;-73
2023/06/20 07:58:10;;;;;;;8.00;4.80;;;20.60;99.90;;;;;;5026170;28;20055;-73
2023/06/20 08:00:35;;;;;;;10.63;5.03;;;20.60;99.90;;;;;;5024525;28;20037;-73
2023/06/20 08:03:01;;;;;;;8.43;4.70;;;20.50;99.90;;;;;;5007193;28;20033;-73
2023/06/20 08:05:26;;;;;;;8.88;4.45;;;20.50;99.90;;;;;;5041297;28;20064;-73
2023/06/20 08:07:52;;;;;;;11.15;5.28;;;20.50;99.90;;;;;;5044452;28;20040;-74
2023/06/20 08:10:18;;;;;;;8.90;5.00;;;20.60;99.90;;;;;;5022938;28;20536;-74
2023/06/20 08:12:44;;;;;;;9.55;4.82;;;20.50;99.90;;;;;;5020500;28;20056;-73
2023/06/20 08:15:10;;;;;;;9.18;5.07;;;20.50;99.90;;;;;;5006495;28;20032;-73
2023/06/20 08:17:36;;;;;;;8.93;5.07;;;20.60;99.90;;;;;;5028096;28;20117;-73
2023/06/20 08:20:06;;;;;;;14.65;4.97;;;20.60;99.90;;;;;;5027688;28;20051;-73
2023/06/20 08:22:32;;;;;;;10.18;5.35;;;20.60;99.90;;;;;;5008662;28;20069;-73
2023/06/20 08:24:58;;;;;;;9.48;5.03;;;20.70;99.90;;;;;;5027722;28;20159;-73
2023/06/20 08:27:24;;;;;;;10.45;4.97;;;20.70;99.90;;;;;;5027398;28;20064;-73
2023/06/20 08:29:49;;;;;;;11.18;5.93;;;20.70;99.90;;;;;;5025840;28;20068;-73
2023/06/20 08:32:16;;;;;;;9.38;5.32;;;20.80;99.90;;;;;;5025879;28;20033;-74
2023/06/20 08:34:41;;;;;;;10.43;5.68;;;20.80;99.90;;;;;;5027051;28;20044;-73
2023/06/20 08:37:08;;;;;;;10.60;5.55;;;20.90;99.90;;;;;;5027439;28;20055;-74
2023/06/20 08:39:35;;;;;;;9.70;5.28;;;20.90;99.90;;;;;;5028072;28;20044;-72
2023/06/20 08:42:01;;;;;;;8.75;5.28;;;21.00;99.90;;;;;;5020690;28;20048;-74
2023/06/20 08:44:27;;;;;;;9.38;5.53;;;20.90;99.90;;;;;;5025327;28;20033;-74
2023/06/20 08:46:57;;;;;;;10.48;5.32;;;21.00;99.90;;;;;;5020959;28;20858;-74
2023/06/20 08:49:23;;;;;;;10.13;5.40;;;21.10;99.90;;;;;;5024147;28;20049;-76
2023/06/20 08:51:49;;;;;;;9.82;5.25;;;21.10;99.90;;;;;;5024422;28;20210;-72
2023/06/20 08:54:18;;;;;;;9.63;5.20;;;21.10;99.90;;;;;;5017740;28;20144;-73
2023/06/20 08:56:44;;;;;;;9.25;4.70;;;21.30;99.90;;;;;;5023439;28;20390;-74
2023/06/20 08:59:10;;;;;;;8.13;4.85;;;21.30;99.90;;;;;;5025547;28;20044;-74
2023/06/20 09:01:35;;;;;;;11.90;5.13;;;21.40;99.90;;;;;;5005447;28;20062;-74
2023/06/20 09:04:02;;;;;;;9.75;5.72;;;21.40;99.90;;;;;;5022667;28;20124;-74
2023/06/20 09:06:37;;;;;;;9.10;5.20;;;21.50;99.90;;;;;;5038470;28;20044;-75
2023/06/20 09:09:06;;;;;;;11.05;4.78;;;21.50;99.90;;;;;;5003089;28;20504;-74
2023/06/20 09:11:38;;;;;;;10.57;5.30;;;21.60;99.90;;;;;;5018817;28;20644;-74
2023/06/20 09:14:03;;;;;;;9.32;5.18;;;21.70;99.90;;;;;;5021978;28;20131;-74
2023/06/20 09:16:29;;;;;;;8.18;4.80;;;21.90;99.90;;;;;;5022382;28;20043;-73
2023/06/20 09:18:59;;;;;;;9.00;4.32;;;22.00;99.90;;;;;;5022009;28;20493;-74
2023/06/20 09:21:24;;;;;;;8.50;4.55;;;22.10;99.90;;;;;;5018228;28;20037;-75
2023/06/20 09:24:04;;;;;;;7.50;4.32;;;22.20;99.90;;;;;;5037281;28;20052;-77
2023/06/20 09:26:30;;;;;;;7.68;3.63;;;22.20;99.80;;;;;;5006417;28;20045;-75
2023/06/20 09:29:10;;;;;;;6.13;3.47;;;22.30;99.80;;;;;;5023916;28;20175;-75
2023/06/20 09:31:43;;;;;;;7.82;4.15;;;22.40;99.70;;;;;;5006805;28;20051;-75
2023/06/20 09:34:13;;;;;;;6.97;3.83;;;22.40;99.60;;;;;;5023041;28;20048;-76
2023/06/20 09:36:40;;;;;;;9.10;4.60;;;22.50;99.60;;;;;;5020142;28;20049;-75
2023/06/20 09:39:20;;;;;;;8.93;3.80;;;22.60;99.50;;;;;;5021968;28;20048;-75
2023/06/20 09:41:50;;;;;;;7.32;4.35;;;22.60;99.30;;;;;;5007553;28;20044;-73
2023/06/20 09:44:19;;;;;;;7.90;4.00;;;22.70;99.40;;;;;;5044521;28;20041;-73
2023/06/20 09:46:46;;;;;;;6.60;3.72;;;22.80;99.40;;;;;;5026939;28;20033;-72
2023/06/20 09:49:13;;;;;;;9.13;3.63;;;22.90;99.20;;;;;;5025767;28;20149;-75
2023/06/20 09:51:47;;;;;;;5.45;3.65;;;22.90;99.10;;;;;;5028659;28;20033;-74
2023/06/20 09:54:15;;;;;;;10.05;4.60;;;23.00;99.20;;;;;;5025307;28;20175;-73
2023/06/20 09:56:50;;;;;;;15.10;4.72;;;23.10;98.90;;;;;;5005305;28;20033;-72
2023/06/20 09:59:16;;;;;;;9.77;4.47;;;23.20;98.70;;;;;;5009684;28;20033;-74
2023/06/20 10:01:42;;;;;;;6.82;4.32;;;23.20;98.80;;;;;;5023034;28;20037;-74
2023/06/20 10:04:08;;;;;;;6.78;4.05;;;23.20;98.50;;;;;;5024807;28;20463;-74
2023/06/20 10:06:37;;;;;;;7.90;3.47;;;23.20;98.50;;;;;;5019602;28;20033;-74
2023/06/20 10:09:07;;;;;;;7.85;4.10;;;23.20;98.40;;;;;;5026002;28;20522;-74
2023/06/20 10:11:39;;;;;;;6.43;4.03;;;23.30;98.40;;;;;;5024269;28;20502;-74
2023/06/20 10:14:05;;;;;;;6.22;3.72;;;23.20;98.20;;;;;;5023095;28;20086;-75
2023/06/20 10:16:31;;;;;;;7.47;4.10;;;23.30;98.10;;;;;;5022658;28;20048;-74
2023/06/20 10:18:56;;;;;;;6.97;3.72;;;23.30;97.90;;;;;;5025497;28;20402;-74
2023/06/20 10:21:57;;;;;;;8.27;3.80;;;23.20;97.80;;;;;;5006441;28;20475;-75
2023/06/20 10:24:28;;;;;;;5.10;3.65;;;23.30;97.70;;;;;;5039639;28;20060;-75
2023/06/20 10:26:55;;;;;;;6.78;4.40;;;23.30;97.80;;;;;;5005042;28;20059;-75
2023/06/20 10:29:21;;;;;;;7.25;3.75;;;23.30;97.80;;;;;;5025221;28;20075;-75
2023/06/20 10:32:04;;;;;;;7.38;4.00;;;23.30;97.60;;;;;;5024982;28;20095;-75
2023/06/20 10:34:39;;;;;;;9.38;4.40;;;23.40;97.60;;;;;;5023841;28;20558;-75
2023/06/20 10:37:20;;;;;;;7.45;3.88;;;23.40;97.50;;;;;;5023561;28;20155;-74
2023/06/20 10:40:06;;;;;;;6.05;3.63;;;23.40;97.30;;;;;;5028410;28;20040;-75
2023/06/20 10:42:40;;;;;;;5.45;3.45;;;23.50;97.20;;;;;;5026784;28;20128;-75
2023/06/20 10:45:26;;;;;;;5.50;3.58;;;23.50;97.10;;;;;;5023218;28;20080;-74
2023/06/20 10:47:56;;;;;;;5.63;3.10;;;23.50;97.10;;;;;;5023969;28;20059;-74
2023/06/20 10:50:22;;;;;;;5.28;3.35;;;23.60;97.10;;;;;;5033005;28;20470;-74
2023/06/20 10:52:48;;;;;;;4.93;3.00;;;23.60;96.90;;;;;;5024368;28;20060;-74
2023/06/20 10:55:21;;;;;;;5.00;2.83;;;23.60;96.80;;;;;;5042979;28;20482;-75
2023/06/20 10:57:48;;;;;;;6.78;3.40;;;23.70;96.80;;;;;;5025204;28;21343;-74
2023/06/20 11:00:18;;;;;;;4.72;3.08;;;23.70;96.80;;;;;;5004486;28;20041;-74
2023/06/20 11:02:49;;;;;;;5.55;3.50;;;23.80;96.80;;;;;;5025198;28;20044;-74
2023/06/20 11:05:16;;;;;;;8.35;3.80;;;23.80;96.80;;;;;;5024710;28;20059;-74
2023/06/20 11:07:59;;;;;;;8.07;3.88;;;23.90;96.80;;;;;;5027032;28;20113;-74
2023/06/20 11:10:32;;;;;;;5.30;2.85;;;23.90;96.60;;;;;;5006214;28;20048;-74
2023/06/20 11:13:00;;;;;;;4.15;2.30;;;24.00;96.30;;;;;;5025622;28;20041;-74
2023/06/20 11:15:28;;;;;;;5.22;2.97;;;24.10;96.10;;;;;;5023437;28;20037;-74
2023/06/20 11:17:55;;;;;;;6.13;3.50;;;24.10;95.90;;;;;;5008049;28;20060;-75
2023/06/20 11:20:23;;;;;;;5.38;2.97;;;24.10;95.70;;;;;;5023357;28;20059;-74
2023/06/20 11:22:49;;;;;;;5.95;3.20;;;24.20;95.60;;;;;;5023919;28;20124;-73
2023/06/20 11:25:28;;;;;;;4.95;3.20;;;24.30;95.60;;;;;;5022763;28;20060;-74
2023/06/20 11:27:55;;;;;;;4.15;3.10;;;24.40;95.50;;;;;;5007976;28;20033;-73
2023/06/20 11:30:28;;;;;;;5.68;3.20;;;24.50;95.40;;;;;;5032332;28;20041;-74
2023/06/20 11:33:14;;;;;;;4.32;2.70;;;24.50;95.20;;;;;;5022117;28;20067;-74
2023/06/20 11:35:55;;;;;;;5.05;3.10;;;24.50;94.90;;;;;;5019454;28;20083;-74
2023/06/20 11:38:29;;;;;;;4.70;3.00;;;24.60;94.50;;;;;;5011217;28;20029;-74
2023/06/20 11:41:06;;;;;;;6.18;3.45;;;24.60;94.70;;;;;;5020748;28;20227;-74
2023/06/20 11:43:38;;;;;;;5.55;2.97;;;24.60;94.60;;;;;;5022372;28;20040;-73
2023/06/20 11:46:05;;;;;;;4.47;3.25;;;24.60;94.60;;;;;;5037375;28;20124;-73
2023/06/20 11:48:31;;;;;;;4.40;2.88;;;24.60;94.60;;;;;;5009160;28;20087;-74
2023/06/20 11:51:02;;;;;;;4.88;3.30;;;24.60;94.50;;;;;;5009488;28;20664;-74
2023/06/20 11:53:36;;;;;;;4.97;3.25;;;24.60;94.50;;;;;;5008485;28;20044;-74
2023/06/20 11:56:10;;;;;;;5.55;3.20;;;24.60;94.60;;;;;;5029041;28;20044;-75
2023/06/20 11:58:44;;;;;;;5.50;2.60;;;24.70;94.10;;;;;;5008768;28;20041;-75
2023/06/20 12:01:14;;;;;;;5.90;3.03;;;24.80;94.10;;;;;;5043125;28;20072;-76
2023/06/20 12:03:41;;;;;;;5.07;3.10;;;24.80;93.90;;;;;;5025042;28;20578;-75
2023/06/20 12:06:36;;;;;;;4.40;2.78;;;24.90;93.80;;;;;;5005100;28;20051;-74
2023/06/20 12:09:09;;;;;;;4.70;3.30;;;24.90;93.60;;;;;;5024138;28;20041;-74
2023/06/20 12:11:44;;;;;;;6.22;3.22;;;25.00;93.60;;;;;;5019061;28;20036;-74
2023/06/20 12:14:10;;;;;;;5.13;3.53;;;25.10;93.70;;;;;;5032425;28;20121;-74
2023/06/20 12:16:36;;;;;;;6.80;4.28;;;25.10;93.80;;;;;;5000010;28;20410;-74
2023/06/20 12:19:02;;;;;;;7.28;4.18;;;25.20;93.60;;;;;;5022998;28;20037;-75
2023/06/20 12:21:27;;;;;;;6.53;4.22;;;25.30;93.60;;;;;;5017820;28;20041;-75
2023/06/20 12:23:53;;;;;;;6.50;3.55;;;25.30;93.50;;;;;;5019324;28;20041;-72
2023/06/20 12:26:27;;;;;;;5.07;3.70;;;25.30;93.40;;;;;;5093613;27;20565;-73
2023/06/20 12:28:53;;;;;;;5.75;3.65;;;25.30;93.40;;;;;;5087071;28;20131;-73
2023/06/20 12:31:19;;;;;;;6.10;4.00;;;25.20;93.20;;;;;;5070001;28;20387;-74
2023/06/20 12:33:44;;;;;;;5.72;3.55;;;25.10;93.20;;;;;;5078865;28;20048;-73
2023/06/20 12:36:10;;;;;;;7.82;4.18;;;25.20;93.00;;;;;;5069227;28;20588;-74
2023/06/20 12:38:36;;;;;;;6.15;4.40;;;25.30;93.10;;;;;;5070769;28;20040;-74
2023/06/20 12:41:03;;;;;;;7.28;4.38;;;25.30;92.90;;;;;;5055822;28;20064;-74
2023/06/20 12:43:28;;;;;;;5.80;4.18;;;25.30;92.80;;;;;;5072589;28;20036;-74
2023/06/20 12:45:57;;;;;;;7.40;4.40;;;25.30;92.70;;;;;;5074597;28;20366;-74
2023/06/20 12:48:24;;;;;;;6.40;4.68;;;25.30;92.70;;;;;;5069593;28;20052;-74
2023/06/20 12:50:50;;;;;;;7.88;3.85;;;25.40;92.60;;;;;;5055283;28;20052;-74